UAL152 KLAX-VHHH
Flight info
| Callsign | UAL152 |
|---|---|
| Flight time | N/A |
| Altitude | 32000 |
| Route | SUMMR2 MCKEY DCT LIBBO DCT BRINY DCT BOARS DCT AMAKR DCT LINUZ/N0492F340 DCT NATTE DCT 44N130W 49N140W 52N150W 54N160W 55N170W/N0502F360 55N180E DCT NIKLL/N0505F370 R220 NOGAL/N0494F380 R220 NODAN R217 ASTER Y514 SDE Y512 GTC Y142 SAMON Y14 DGC/N0490F400 V28 FUE Z40 IGMON A1 ELATO V522 ABBEY |
| Aircraft | B789/H-SDE1E2E3FGHIJ2J3J4J5M1RWXY/LB1D1 |
Departure
| Time | 2026-04-24 23:59 |
|---|---|
| Airport | Los Angeles International Airport (KLAX) |
Arrival
| Time | N/A |
|---|---|
| Airport | Hong Kong International Airport (VHHH) |
| Time | Latitude | Longitude | Altitude | Speed | Heading |
|---|---|---|---|---|---|
| 2026-04-24 23:31 | 33.94182 | -118.39900 | 98 ft | 0 kts | 298° |
| 2026-04-24 23:48 | 33.94182 | -118.39899 | 98 ft | 2 kts | 298° |
| 2026-04-24 23:48 | 33.94170 | -118.39874 | 101 ft | 2 kts | 298° |
| 2026-04-24 23:48 | 33.94162 | -118.39850 | 99 ft | 4 kts | 254° |
| 2026-04-24 23:48 | 33.94175 | -118.39838 | 97 ft | 4 kts | 177° |
| 2026-04-24 23:49 | 33.94167 | -118.39836 | 99 ft | 4 kts | 173° |
| 2026-04-24 23:49 | 33.94140 | -118.39832 | 98 ft | 4 kts | 173° |
| 2026-04-24 23:49 | 33.94113 | -118.39829 | 99 ft | 4 kts | 173° |
| 2026-04-24 23:49 | 33.94086 | -118.39825 | 99 ft | 4 kts | 173° |
| 2026-04-24 23:50 | 33.94067 | -118.39828 | 99 ft | 4 kts | 200° |
| 2026-04-24 23:50 | 33.94049 | -118.39829 | 99 ft | 0 kts | 173° |
| 2026-04-24 23:52 | 33.94044 | -118.39828 | 100 ft | 1 kts | 173° |
| 2026-04-24 23:52 | 33.94020 | -118.39824 | 100 ft | 6 kts | 173° |
| 2026-04-24 23:53 | 33.93970 | -118.39813 | 100 ft | 8 kts | 167° |
| 2026-04-24 23:53 | 33.93927 | -118.39798 | 100 ft | 4 kts | 149° |
| 2026-04-24 23:53 | 33.93908 | -118.39763 | 101 ft | 7 kts | 110° |
| 2026-04-24 23:53 | 33.93909 | -118.39691 | 100 ft | 11 kts | 83° |
| 2026-04-24 23:54 | 33.93921 | -118.39577 | 100 ft | 16 kts | 83° |
| 2026-04-24 23:54 | 33.93938 | -118.39418 | 102 ft | 22 kts | 82° |
| 2026-04-24 23:54 | 33.93959 | -118.39214 | 99 ft | 27 kts | 83° |
| 2026-04-24 23:54 | 33.93982 | -118.38985 | 99 ft | 27 kts | 83° |
| 2026-04-24 23:55 | 33.94004 | -118.38771 | 99 ft | 25 kts | 83° |
| 2026-04-24 23:55 | 33.94024 | -118.38567 | 102 ft | 24 kts | 83° |
| 2026-04-24 23:55 | 33.94045 | -118.38368 | 101 ft | 24 kts | 83° |
| 2026-04-24 23:55 | 33.94065 | -118.38172 | 99 ft | 21 kts | 83° |
| 2026-04-24 23:56 | 33.94073 | -118.38088 | 99 ft | 11 kts | 83° |
| 2026-04-24 23:56 | 33.94076 | -118.38061 | 98 ft | 2 kts | 83° |
| 2026-04-24 23:56 | 33.94078 | -118.38042 | 98 ft | 2 kts | 87° |
| 2026-04-24 23:56 | 33.94072 | -118.38027 | 98 ft | 3 kts | 121° |
| 2026-04-24 23:57 | 33.94051 | -118.38007 | 99 ft | 6 kts | 151° |
| 2026-04-24 23:57 | 33.94000 | -118.38000 | 100 ft | 6 kts | 201° |
| 2026-04-24 23:57 | 33.93987 | -118.38024 | 101 ft | 5 kts | 244° |
| 2026-04-24 23:57 | 33.93974 | -118.38127 | 99 ft | 31 kts | 264° |
| 2026-04-24 23:58 | 33.93923 | -118.38621 | 103 ft | 87 kts | 263° |
| 2026-04-24 23:58 | 33.93827 | -118.39556 | 103 ft | 136 kts | 263° |
| 2026-04-24 23:58 | 33.93700 | -118.40849 | 181 ft | 166 kts | 267° |
| 2026-04-24 23:58 | 33.93596 | -118.42191 | 687 ft | 162 kts | 263° |
| 2026-04-24 23:59 | 33.93388 | -118.43532 | 1301 ft | 165 kts | 256° |
| 2026-04-24 23:59 | 33.93154 | -118.44928 | 1858 ft | 176 kts | 258° |
| 2026-04-24 23:59 | 33.93007 | -118.46409 | 2333 ft | 183 kts | 264° |
| 2026-04-24 23:59 | 33.92944 | -118.48003 | 2611 ft | 198 kts | 266° |
| 2026-04-25 00:00 | 33.92876 | -118.49717 | 2930 ft | 212 kts | 265° |
| 2026-04-25 00:00 | 33.92744 | -118.51579 | 3176 ft | 236 kts | 262° |
| 2026-04-25 00:00 | 33.92552 | -118.53643 | 3409 ft | 261 kts | 263° |
| 2026-04-25 00:00 | 33.92344 | -118.55848 | 4157 ft | 263 kts | 263° |
| 2026-04-25 00:01 | 33.92151 | -118.58005 | 5171 ft | 257 kts | 263° |
| 2026-04-25 00:01 | 33.91978 | -118.60204 | 5462 ft | 277 kts | 264° |
| 2026-04-25 00:01 | 33.91812 | -118.62552 | 5954 ft | 286 kts | 264° |
| 2026-04-25 00:01 | 33.91809 | -118.64913 | 6969 ft | 273 kts | 271° |
| 2026-04-25 00:02 | 33.91822 | -118.67146 | 8051 ft | 267 kts | 269° |
| 2026-04-25 00:02 | 33.91756 | -118.69397 | 8722 ft | 272 kts | 266° |
| 2026-04-25 00:02 | 33.91633 | -118.71677 | 9480 ft | 272 kts | 269° |
| 2026-04-25 00:02 | 33.91719 | -118.73944 | 10245 ft | 272 kts | 274° |
| 2026-04-25 00:03 | 33.91806 | -118.76303 | 10426 ft | 295 kts | 270° |
| 2026-04-25 00:03 | 33.91769 | -118.78859 | 10597 ft | 316 kts | 267° |
| 2026-04-25 00:03 | 33.91630 | -118.81576 | 10834 ft | 334 kts | 265° |
| 2026-04-25 00:03 | 33.91540 | -118.84434 | 11074 ft | 350 kts | 272° |
| 2026-04-25 00:04 | 33.91723 | -118.87434 | 11232 ft | 369 kts | 275° |
| 2026-04-25 00:04 | 33.91966 | -118.90508 | 12121 ft | 358 kts | 273° |
| 2026-04-25 00:04 | 33.92042 | -118.93404 | 13757 ft | 334 kts | 268° |
| 2026-04-25 00:04 | 33.92029 | -118.96224 | 14269 ft | 344 kts | 271° |
| 2026-04-25 00:05 | 33.92200 | -118.99146 | 14599 ft | 355 kts | 277° |
| 2026-04-25 00:05 | 33.92942 | -119.02012 | 15030 ft | 367 kts | 295° |
| 2026-04-25 00:05 | 33.94368 | -119.04587 | 15703 ft | 370 kts | 307° |
| 2026-04-25 00:05 | 33.96163 | -119.06824 | 16331 ft | 375 kts | 310° |
| 2026-04-25 00:06 | 33.98046 | -119.09091 | 16525 ft | 387 kts | 310° |
| 2026-04-25 00:06 | 33.99878 | -119.11404 | 17579 ft | 373 kts | 308° |
| 2026-04-25 00:06 | 34.01631 | -119.13718 | 18127 ft | 379 kts | 307° |
| 2026-04-25 00:06 | 34.03440 | -119.16113 | 18389 ft | 389 kts | 308° |
| 2026-04-25 00:07 | 34.05280 | -119.18486 | 18973 ft | 385 kts | 308° |
| 2026-04-25 00:07 | 34.07096 | -119.20800 | 18958 ft | 380 kts | 308° |
| 2026-04-25 00:07 | 34.08906 | -119.23143 | 19359 ft | 381 kts | 308° |
| 2026-04-25 00:07 | 34.10711 | -119.25491 | 19900 ft | 382 kts | 308° |
| 2026-04-25 00:08 | 34.12531 | -119.27848 | 20366 ft | 385 kts | 308° |
| 2026-04-25 00:08 | 34.14358 | -119.30209 | 20859 ft | 386 kts | 307° |
| 2026-04-25 00:08 | 34.16192 | -119.32584 | 21338 ft | 387 kts | 307° |
| 2026-04-25 00:08 | 34.18031 | -119.34973 | 21797 ft | 389 kts | 307° |
| 2026-04-25 00:09 | 34.19883 | -119.37377 | 22264 ft | 391 kts | 307° |
| 2026-04-25 00:09 | 34.21699 | -119.39735 | 22762 ft | 391 kts | 307° |
| 2026-04-25 00:09 | 34.23590 | -119.42193 | 23209 ft | 393 kts | 307° |
| 2026-04-25 00:09 | 34.25451 | -119.44614 | 23610 ft | 394 kts | 307° |
| 2026-04-25 00:10 | 34.27321 | -119.47048 | 23943 ft | 396 kts | 307° |
| 2026-04-25 00:10 | 34.29173 | -119.49461 | 24281 ft | 398 kts | 307° |
| 2026-04-25 00:10 | 34.31057 | -119.51916 | 24611 ft | 399 kts | 307° |
| 2026-04-25 00:10 | 34.32978 | -119.54424 | 24907 ft | 401 kts | 307° |
| 2026-04-25 00:11 | 34.34856 | -119.56874 | 25192 ft | 403 kts | 307° |
| 2026-04-25 00:11 | 34.36764 | -119.59366 | 25502 ft | 405 kts | 306° |
| 2026-04-25 00:11 | 34.38683 | -119.61874 | 25851 ft | 405 kts | 306° |
| 2026-04-25 00:11 | 34.40602 | -119.64384 | 26137 ft | 407 kts | 306° |
| 2026-04-25 00:12 | 34.42529 | -119.66909 | 26419 ft | 409 kts | 306° |
| 2026-04-25 00:12 | 34.44464 | -119.69443 | 26697 ft | 411 kts | 306° |
| 2026-04-25 00:12 | 34.46404 | -119.71988 | 27020 ft | 412 kts | 306° |
| 2026-04-25 00:12 | 34.48349 | -119.74539 | 27292 ft | 414 kts | 306° |
| 2026-04-25 00:13 | 34.50306 | -119.77110 | 27594 ft | 415 kts | 306° |
| 2026-04-25 00:13 | 34.52268 | -119.79685 | 27860 ft | 417 kts | 306° |
| 2026-04-25 00:13 | 34.54245 | -119.82280 | 28094 ft | 419 kts | 306° |
| 2026-04-25 00:13 | 34.56221 | -119.84881 | 28317 ft | 421 kts | 306° |
| 2026-04-25 00:14 | 34.58202 | -119.87495 | 28570 ft | 422 kts | 306° |
| 2026-04-25 00:14 | 34.60197 | -119.90128 | 28795 ft | 424 kts | 306° |
| 2026-04-25 00:14 | 34.62196 | -119.92762 | 29053 ft | 425 kts | 306° |
| 2026-04-25 00:14 | 34.64203 | -119.95410 | 29262 ft | 427 kts | 306° |
| 2026-04-25 00:15 | 34.66213 | -119.98065 | 29485 ft | 428 kts | 306° |
| 2026-04-25 00:15 | 34.68234 | -120.00738 | 29710 ft | 430 kts | 306° |
| 2026-04-25 00:15 | 34.70259 | -120.03417 | 29933 ft | 432 kts | 306° |
| 2026-04-25 00:15 | 34.72290 | -120.06105 | 30209 ft | 431 kts | 306° |
| 2026-04-25 00:16 | 34.74323 | -120.08796 | 30332 ft | 434 kts | 306° |
| 2026-04-25 00:16 | 34.76363 | -120.11505 | 30508 ft | 434 kts | 306° |
| 2026-04-25 00:16 | 34.78408 | -120.14222 | 30618 ft | 437 kts | 306° |
| 2026-04-25 00:16 | 34.80466 | -120.16954 | 30807 ft | 438 kts | 306° |
| 2026-04-25 00:17 | 34.82525 | -120.19688 | 30968 ft | 440 kts | 306° |
| 2026-04-25 00:17 | 34.84590 | -120.22437 | 31135 ft | 440 kts | 306° |
| 2026-04-25 00:17 | 34.86659 | -120.25192 | 31300 ft | 441 kts | 305° |
| 2026-04-25 00:17 | 34.88722 | -120.27937 | 31707 ft | 437 kts | 305° |
| 2026-04-25 00:18 | 34.90774 | -120.30673 | 31938 ft | 437 kts | 305° |
| 2026-04-25 00:18 | 34.92826 | -120.33418 | 31980 ft | 440 kts | 305° |
| 2026-04-25 00:18 | 34.96943 | -120.38913 | 31982 ft | 437 kts | 305° |
| 2026-04-25 00:19 | 35.00999 | -120.44345 | 31984 ft | 436 kts | 305° |
| 2026-04-25 00:19 | 35.05084 | -120.49822 | 31992 ft | 437 kts | 305° |
| 2026-04-25 00:20 | 35.09169 | -120.55305 | 31994 ft | 437 kts | 305° |
| 2026-04-25 00:20 | 35.13251 | -120.60796 | 31994 ft | 437 kts | 305° |
| 2026-04-25 00:21 | 35.17332 | -120.66295 | 31984 ft | 436 kts | 305° |
| 2026-04-25 00:21 | 35.21411 | -120.71799 | 31983 ft | 438 kts | 305° |
| 2026-04-25 00:22 | 35.25498 | -120.77318 | 31983 ft | 437 kts | 305° |
| 2026-04-25 00:22 | 35.29566 | -120.82825 | 31990 ft | 437 kts | 305° |
| 2026-04-25 00:23 | 35.33639 | -120.88349 | 31992 ft | 437 kts | 305° |
| 2026-04-25 00:23 | 35.37707 | -120.93870 | 31981 ft | 434 kts | 305° |
| 2026-04-25 00:24 | 35.41740 | -120.99358 | 31983 ft | 435 kts | 305° |
| 2026-04-25 00:24 | 35.45796 | -121.04883 | 31979 ft | 436 kts | 305° |
| 2026-04-25 00:25 | 35.49797 | -121.10461 | 31985 ft | 434 kts | 304° |
| 2026-04-25 00:25 | 35.53720 | -121.16081 | 31975 ft | 431 kts | 304° |
| 2026-04-25 00:26 | 35.57601 | -121.21677 | 31987 ft | 430 kts | 304° |
| 2026-04-25 00:26 | 35.61463 | -121.27247 | 31973 ft | 433 kts | 304° |
| 2026-04-25 00:27 | 35.65373 | -121.32893 | 31981 ft | 434 kts | 304° |
| 2026-04-25 00:27 | 35.69278 | -121.38544 | 31984 ft | 432 kts | 304° |
| 2026-04-25 00:28 | 35.73156 | -121.44165 | 31991 ft | 431 kts | 304° |
| 2026-04-25 00:28 | 35.77026 | -121.49786 | 31987 ft | 431 kts | 304° |
| 2026-04-25 00:29 | 35.80900 | -121.55418 | 31984 ft | 432 kts | 304° |
| 2026-04-25 00:29 | 35.84790 | -121.61085 | 31991 ft | 433 kts | 304° |
| 2026-04-25 00:30 | 35.88677 | -121.66756 | 32000 ft | 433 kts | 304° |
| 2026-04-25 00:30 | 35.92562 | -121.72434 | 31995 ft | 433 kts | 304° |
| 2026-04-25 00:31 | 35.96443 | -121.78116 | 32023 ft | 433 kts | 304° |
| 2026-04-25 00:31 | 36.00778 | -121.83374 | 32012 ft | 446 kts | 317° |
| 2026-04-25 00:32 | 36.06233 | -121.87217 | 32006 ft | 455 kts | 325° |
| 2026-04-25 00:32 | 36.11878 | -121.90744 | 32005 ft | 454 kts | 326° |
| 2026-04-25 00:33 | 36.17519 | -121.94271 | 32015 ft | 454 kts | 325° |
| 2026-04-25 00:33 | 36.23154 | -121.97803 | 32016 ft | 454 kts | 325° |
| 2026-04-25 00:34 | 36.28829 | -122.01367 | 32013 ft | 461 kts | 326° |
| 2026-04-25 00:34 | 36.34614 | -122.05003 | 32015 ft | 470 kts | 326° |
| 2026-04-25 00:35 | 36.40441 | -122.08669 | 32028 ft | 474 kts | 326° |
| 2026-04-25 00:35 | 36.46324 | -122.12379 | 32022 ft | 474 kts | 326° |
| 2026-04-25 00:36 | 36.52213 | -122.16102 | 32020 ft | 476 kts | 326° |